POW6MD EDDM-EDDL
Flight info
| Callsign | POW6MD |
|---|---|
| Flight time | 0h 46m |
| Altitude | 30000 |
| Route | GIVMI6Q GIVMI Y101 INBED DCT REKDI DCT LOHRE Z850 ARPEG/N0429F240 Z850 ADEMI T854 DOMUX DOMUX1A |
| Aircraft | A320/M-SDE3FGHIRWY/LB1 |
Departure
| Time | 2026-05-04 17:20 |
|---|---|
| Airport | Munich Airport (EDDM) |
Arrival
| Time | 2026-05-04 18:07 |
|---|---|
| Airport | Düsseldorf Airport (EDDL) |
| Time | Latitude | Longitude | Altitude | Speed | Heading |
|---|---|---|---|---|---|
| 2026-05-04 16:54 | 48.35180 | 11.77703 | 1486 ft | 0 kts | 263° |
| 2026-05-04 17:12 | 48.35181 | 11.77713 | 1485 ft | 4 kts | 265° |
| 2026-05-04 17:12 | 48.35182 | 11.77778 | 1485 ft | 4 kts | 319° |
| 2026-05-04 17:13 | 48.35151 | 11.77790 | 1485 ft | 0 kts | 353° |
| 2026-05-04 17:15 | 48.35152 | 11.77790 | 1485 ft | 0 kts | 353° |
| 2026-05-04 17:16 | 48.35183 | 11.77784 | 1485 ft | 4 kts | 353° |
| 2026-05-04 17:16 | 48.35326 | 11.77760 | 1480 ft | 10 kts | 353° |
| 2026-05-04 17:17 | 48.35400 | 11.77747 | 1485 ft | 12 kts | 353° |
| 2026-05-04 17:17 | 48.35690 | 11.77697 | 1485 ft | 11 kts | 353° |
| 2026-05-04 17:18 | 48.35751 | 11.77695 | 1485 ft | 7 kts | 12° |
| 2026-05-04 17:18 | 48.35905 | 11.77686 | 1475 ft | 26 kts | 353° |
| 2026-05-04 17:19 | 48.36180 | 11.77771 | 1480 ft | 17 kts | 53° |
| 2026-05-04 17:19 | 48.36325 | 11.78069 | 1485 ft | 27 kts | 55° |
| 2026-05-04 17:20 | 48.36443 | 11.78938 | 1485 ft | 83 kts | 83° |
| 2026-05-04 17:20 | 48.36654 | 11.81656 | 1557 ft | 165 kts | 82° |
| 2026-05-04 17:20 | 48.36785 | 11.83333 | 2156 ft | 159 kts | 82° |
| 2026-05-04 17:21 | 48.37578 | 11.86332 | 3228 ft | 163 kts | 36° |
| 2026-05-04 17:21 | 48.40054 | 11.86832 | 3640 ft | 208 kts | 358° |
| 2026-05-04 17:22 | 48.41543 | 11.86439 | 3931 ft | 228 kts | 336° |
| 2026-05-04 17:22 | 48.42824 | 11.84859 | 4288 ft | 250 kts | 310° |
| 2026-05-04 17:23 | 48.46484 | 11.78341 | 6328 ft | 281 kts | 309° |
| 2026-05-04 17:23 | 48.47760 | 11.76095 | 7177 ft | 283 kts | 309° |
| 2026-05-04 17:23 | 48.50346 | 11.71542 | 8835 ft | 288 kts | 308° |
| 2026-05-04 17:24 | 48.51652 | 11.69238 | 9644 ft | 291 kts | 307° |
| 2026-05-04 17:24 | 48.55883 | 11.61749 | 10624 ft | 345 kts | 307° |
| 2026-05-04 17:25 | 48.57485 | 11.58902 | 10823 ft | 364 kts | 307° |
| 2026-05-04 17:25 | 48.60831 | 11.52972 | 11953 ft | 376 kts | 307° |
| 2026-05-04 17:26 | 48.64236 | 11.46937 | 13199 ft | 383 kts | 307° |
| 2026-05-04 17:26 | 48.69528 | 11.37629 | 14951 ft | 395 kts | 312° |
| 2026-05-04 17:27 | 48.73962 | 11.32584 | 16084 ft | 404 kts | 323° |
| 2026-05-04 17:27 | 48.78664 | 11.27837 | 17353 ft | 407 kts | 323° |
| 2026-05-04 17:28 | 48.83419 | 11.23067 | 18571 ft | 413 kts | 327° |
| 2026-05-04 17:29 | 48.91607 | 11.18320 | 20120 ft | 426 kts | 339° |
| 2026-05-04 17:29 | 49.00112 | 11.14009 | 21550 ft | 433 kts | 339° |
| 2026-05-04 17:30 | 49.08775 | 11.09591 | 22815 ft | 440 kts | 339° |
| 2026-05-04 17:31 | 49.14625 | 11.06593 | 23507 ft | 447 kts | 339° |
| 2026-05-04 17:31 | 49.23505 | 11.02056 | 24496 ft | 453 kts | 338° |
| 2026-05-04 17:32 | 49.29498 | 10.98967 | 25134 ft | 456 kts | 338° |
| 2026-05-04 17:33 | 49.38201 | 10.93185 | 26076 ft | 454 kts | 322° |
| 2026-05-04 17:33 | 49.40649 | 10.90134 | 26429 ft | 451 kts | 313° |
| 2026-05-04 17:34 | 49.46645 | 10.79235 | 27862 ft | 442 kts | 306° |
| 2026-05-04 17:34 | 49.48579 | 10.75573 | 28331 ft | 441 kts | 306° |
| 2026-05-04 17:35 | 49.53728 | 10.65787 | 29538 ft | 439 kts | 305° |
| 2026-05-04 17:35 | 49.57572 | 10.58452 | 29978 ft | 444 kts | 305° |
| 2026-05-04 17:36 | 49.61452 | 10.51010 | 29959 ft | 450 kts | 305° |
| 2026-05-04 17:36 | 49.65378 | 10.43466 | 29970 ft | 451 kts | 304° |
| 2026-05-04 17:37 | 49.69064 | 10.35653 | 29961 ft | 448 kts | 300° |
| 2026-05-04 17:37 | 49.72494 | 10.27621 | 29967 ft | 448 kts | 299° |
| 2026-05-04 17:38 | 49.75917 | 10.19583 | 29977 ft | 447 kts | 299° |
| 2026-05-04 17:38 | 49.79400 | 10.11615 | 29978 ft | 447 kts | 300° |
| 2026-05-04 17:39 | 49.84650 | 9.99700 | 29997 ft | 446 kts | 300° |
| 2026-05-04 17:39 | 49.88132 | 9.91728 | 29967 ft | 447 kts | 300° |
| 2026-05-04 17:40 | 49.91599 | 9.83734 | 29960 ft | 447 kts | 300° |
| 2026-05-04 17:40 | 49.95064 | 9.75697 | 29961 ft | 448 kts | 299° |
| 2026-05-04 17:41 | 49.98532 | 9.67663 | 29961 ft | 448 kts | 300° |
| 2026-05-04 17:41 | 50.02000 | 9.59600 | 29989 ft | 448 kts | 299° |
| 2026-05-04 17:42 | 50.05479 | 9.51548 | 29989 ft | 450 kts | 301° |
| 2026-05-04 17:42 | 50.09959 | 9.44506 | 29982 ft | 460 kts | 316° |
| 2026-05-04 17:43 | 50.14909 | 9.38283 | 29971 ft | 460 kts | 316° |
| 2026-05-04 17:43 | 50.19882 | 9.31987 | 29973 ft | 460 kts | 315° |
| 2026-05-04 17:44 | 50.24840 | 9.25678 | 29970 ft | 460 kts | 315° |
| 2026-05-04 17:44 | 50.29809 | 9.19347 | 29987 ft | 461 kts | 316° |
| 2026-05-04 17:45 | 50.34769 | 9.13007 | 29978 ft | 461 kts | 316° |
| 2026-05-04 17:45 | 50.39735 | 9.06659 | 29975 ft | 460 kts | 316° |
| 2026-05-04 17:46 | 50.44694 | 9.00297 | 29970 ft | 460 kts | 315° |
| 2026-05-04 17:46 | 50.49647 | 8.93923 | 29969 ft | 461 kts | 315° |
| 2026-05-04 17:47 | 50.54612 | 8.87561 | 29983 ft | 461 kts | 316° |
| 2026-05-04 17:47 | 50.59698 | 8.81437 | 30001 ft | 460 kts | 317° |
| 2026-05-04 17:48 | 50.64818 | 8.75409 | 30004 ft | 459 kts | 317° |
| 2026-05-04 17:48 | 50.69903 | 8.69352 | 29643 ft | 457 kts | 317° |
| 2026-05-04 17:49 | 50.72430 | 8.66303 | 29228 ft | 458 kts | 317° |
| 2026-05-04 17:49 | 50.74956 | 8.63237 | 28804 ft | 458 kts | 317° |
| 2026-05-04 17:49 | 50.77520 | 8.60113 | 28388 ft | 459 kts | 317° |
| 2026-05-04 17:49 | 50.80052 | 8.57025 | 27984 ft | 461 kts | 317° |
| 2026-05-04 17:50 | 50.82560 | 8.53971 | 27582 ft | 462 kts | 317° |
| 2026-05-04 17:50 | 50.85110 | 8.50870 | 27204 ft | 463 kts | 318° |
| 2026-05-04 17:50 | 50.87671 | 8.47758 | 26839 ft | 465 kts | 318° |
| 2026-05-04 17:50 | 50.90154 | 8.44489 | 26455 ft | 462 kts | 310° |
| 2026-05-04 17:51 | 50.92338 | 8.40769 | 26066 ft | 462 kts | 308° |
| 2026-05-04 17:51 | 50.94513 | 8.37003 | 25572 ft | 464 kts | 308° |
| 2026-05-04 17:51 | 50.96694 | 8.33219 | 25087 ft | 465 kts | 309° |
| 2026-05-04 17:51 | 50.98879 | 8.29420 | 24618 ft | 467 kts | 309° |
| 2026-05-04 17:52 | 51.01068 | 8.25607 | 24146 ft | 467 kts | 309° |
| 2026-05-04 17:52 | 51.03252 | 8.21809 | 23687 ft | 464 kts | 309° |
| 2026-05-04 17:52 | 51.05428 | 8.18029 | 23166 ft | 462 kts | 309° |
| 2026-05-04 17:52 | 51.07581 | 8.14280 | 22628 ft | 459 kts | 309° |
| 2026-05-04 17:53 | 51.09732 | 8.10537 | 22066 ft | 456 kts | 309° |
| 2026-05-04 17:53 | 51.11865 | 8.06824 | 21492 ft | 454 kts | 309° |
| 2026-05-04 17:53 | 51.13993 | 8.03114 | 20846 ft | 451 kts | 309° |
| 2026-05-04 17:53 | 51.16101 | 7.99434 | 20217 ft | 449 kts | 309° |
| 2026-05-04 17:54 | 51.18197 | 7.95759 | 19605 ft | 446 kts | 309° |
| 2026-05-04 17:54 | 51.20272 | 7.92100 | 19006 ft | 444 kts | 309° |
| 2026-05-04 17:54 | 51.22331 | 7.88467 | 18412 ft | 433 kts | 309° |
| 2026-05-04 17:54 | 51.24298 | 7.85003 | 17759 ft | 412 kts | 309° |
| 2026-05-04 17:55 | 51.26186 | 7.81679 | 17093 ft | 396 kts | 309° |
| 2026-05-04 17:55 | 51.28002 | 7.78483 | 16392 ft | 382 kts | 309° |
| 2026-05-04 17:55 | 51.29758 | 7.75385 | 15688 ft | 370 kts | 309° |
| 2026-05-04 17:55 | 51.31457 | 7.72372 | 15007 ft | 360 kts | 309° |
| 2026-05-04 17:56 | 51.33110 | 7.69433 | 14414 ft | 350 kts | 309° |
| 2026-05-04 17:56 | 51.34714 | 7.66578 | 13807 ft | 341 kts | 310° |
| 2026-05-04 17:56 | 51.36296 | 7.63748 | 13147 ft | 333 kts | 310° |
| 2026-05-04 17:56 | 51.37817 | 7.61018 | 12556 ft | 324 kts | 309° |
| 2026-05-04 17:57 | 51.39296 | 7.58357 | 12027 ft | 316 kts | 309° |
| 2026-05-04 17:57 | 51.40732 | 7.55767 | 11571 ft | 305 kts | 309° |
| 2026-05-04 17:57 | 51.42117 | 7.53268 | 11188 ft | 294 kts | 309° |
| 2026-05-04 17:57 | 51.43456 | 7.50846 | 10726 ft | 288 kts | 309° |
| 2026-05-04 17:58 | 51.44771 | 7.48464 | 10239 ft | 284 kts | 309° |
| 2026-05-04 17:58 | 51.46068 | 7.46103 | 9745 ft | 280 kts | 309° |
| 2026-05-04 17:58 | 51.47065 | 7.43490 | 9213 ft | 272 kts | 284° |
| 2026-05-04 17:58 | 51.47261 | 7.40517 | 8699 ft | 270 kts | 266° |
| 2026-05-04 17:59 | 51.47154 | 7.37537 | 8179 ft | 266 kts | 264° |
| 2026-05-04 17:59 | 51.47018 | 7.34597 | 7673 ft | 262 kts | 263° |
| 2026-05-04 17:59 | 51.46752 | 7.28843 | 6784 ft | 256 kts | 263° |
| 2026-05-04 18:00 | 51.46627 | 7.26042 | 6355 ft | 254 kts | 263° |
| 2026-05-04 18:00 | 51.46505 | 7.23200 | 5889 ft | 251 kts | 263° |
| 2026-05-04 18:00 | 51.46381 | 7.20357 | 5580 ft | 252 kts | 263° |
| 2026-05-04 18:00 | 51.46259 | 7.17540 | 5328 ft | 254 kts | 263° |
| 2026-05-04 18:01 | 51.46102 | 7.14724 | 5075 ft | 252 kts | 256° |
| 2026-05-04 18:01 | 51.45447 | 7.12180 | 4825 ft | 246 kts | 233° |
| 2026-05-04 18:01 | 51.44428 | 7.09996 | 4568 ft | 243 kts | 231° |
| 2026-05-04 18:02 | 51.42388 | 7.05669 | 4122 ft | 232 kts | 232° |
| 2026-05-04 18:02 | 51.41440 | 7.03655 | 4007 ft | 222 kts | 231° |
| 2026-05-04 18:02 | 51.40519 | 7.01701 | 3767 ft | 218 kts | 231° |
| 2026-05-04 18:02 | 51.39626 | 6.99807 | 3490 ft | 208 kts | 231° |
| 2026-05-04 18:03 | 51.38772 | 6.97998 | 3259 ft | 201 kts | 231° |
| 2026-05-04 18:03 | 51.37936 | 6.96228 | 2961 ft | 198 kts | 231° |
| 2026-05-04 18:03 | 51.37115 | 6.94491 | 2691 ft | 193 kts | 231° |
| 2026-05-04 18:03 | 51.36326 | 6.92822 | 2448 ft | 183 kts | 231° |
| 2026-05-04 18:04 | 51.35571 | 6.91227 | 2198 ft | 173 kts | 231° |
| 2026-05-04 18:04 | 51.34891 | 6.89790 | 1984 ft | 152 kts | 232° |
| 2026-05-04 18:04 | 51.33679 | 6.87232 | 1585 ft | 141 kts | 230° |
| 2026-05-04 18:05 | 51.33101 | 6.86014 | 1413 ft | 137 kts | 229° |
| 2026-05-04 18:05 | 51.32521 | 6.84793 | 1196 ft | 137 kts | 229° |
| 2026-05-04 18:05 | 51.31935 | 6.83557 | 1009 ft | 140 kts | 231° |
| 2026-05-04 18:05 | 51.31343 | 6.82312 | 814 ft | 141 kts | 230° |
| 2026-05-04 18:06 | 51.30168 | 6.79828 | 452 ft | 141 kts | 229° |
| 2026-05-04 18:06 | 51.29573 | 6.78582 | 250 ft | 141 kts | 229° |
| 2026-05-04 18:06 | 51.29175 | 6.77744 | 144 ft | 140 kts | 230° |
| 2026-05-04 18:07 | 51.28659 | 6.76669 | 124 ft | 103 kts | 233° |
| 2026-05-04 18:07 | 51.28322 | 6.75968 | 129 ft | 46 kts | 231° |
| 2026-05-04 18:07 | 51.28148 | 6.75600 | 126 ft | 33 kts | 234° |
| 2026-05-04 18:07 | 51.28037 | 6.75504 | 127 ft | 12 kts | 173° |
| 2026-05-04 18:08 | 51.27972 | 6.75546 | 128 ft | 0 kts | 154° |
| 2026-05-04 18:09 | 51.27971 | 6.75546 | 128 ft | 1 kts | 154° |
| 2026-05-04 18:09 | 51.27910 | 6.75592 | 124 ft | 7 kts | 155° |
| 2026-05-04 18:10 | 51.27864 | 6.75654 | 128 ft | 10 kts | 109° |
| 2026-05-04 18:10 | 51.27859 | 6.75772 | 127 ft | 11 kts | 107° |
| 2026-05-04 18:10 | 51.27804 | 6.75813 | 127 ft | 4 kts | 178° |
| 2026-05-04 18:10 | 51.27783 | 6.75814 | 126 ft | 4 kts | 179° |
| 2026-05-04 18:11 | 51.27751 | 6.75829 | 128 ft | 5 kts | 126° |
| 2026-05-04 18:11 | 51.27748 | 6.75895 | 126 ft | 8 kts | 91° |
| 2026-05-04 18:11 | 51.27748 | 6.75920 | 130 ft | 0 kts | 91° |